Airfield :
LOGIN :

Register | Disclaimer

   EN    FR    IT 

 










Legend :    VFR   Marginal VFR   IFR   Intensive IFR   Very Intensive IFR
Visi :
Ceiling :
>= 8 km
>= 3000ft
5 to 8 km
1000 to 3000 ft
1500m to 5 km
500 to 1000 ft
800 to 1500m
200 to 500 ft
< 800m
< 200 ft
Symbols :   Thunderstorms  Fog  Heavy snow  Heavy precipitations  Wind > 20 kt
SIGMETs :     Misc.  Thunderstorms  Icing  Turbulence  Mountain Waves  Volcanic Ashes






- Airport Elevation : 425 ft
- IATA code : DTM


EDLW - Dortmund

CURRENT METAR :
  • 102350Z AUTO 18019KT 9999 // FEW039/// SCT045/// OVC063/// 06/M02 Q1012

EXPIRED METARs :
  • 102320Z AUTO 18019G29KT 9999 // FEW034/// SCT045/// BKN072/// 06/M02 Q1013
  • 102250Z AUTO 18021KT 9999 // FEW043/// OVC070/// 06/M03 Q1013
  • 102220Z AUTO 18020G30KT 9999 // BKN077/// BKN088/// 05/M02 Q1013
  • 102150Z AUTO 18019G31KT 9999 // BKN083/// 05/M02 Q1014
  • 102120Z AUTO 18016G26KT 9999 // OVC086/// 05/M02 Q1014

TAF TAF EDLW
Valid from the 10 at 18:00 until the 11 at 18:00 UTC


101700Z 1018/1118 20015G25KT CAVOK
BECMG 1104/1107 19012KT
TEMPO 1107/1111 RA BKN014
PROB30
TEMPO 1111/1117 4000 BR BKN008



MET'MAP, your aeronautical weather chart ! - Copyright ORBIFLY December 2007 - Disclaimer

ORBIFLY MET'MAP TEAM :

Programming & Development : Alexandra Zaïnal
Concept & original design : Baudouin d'Aumeries
Assistance for programming : Marc-Olivier Méhu
Technical & hardware support : Manuel Goepfert

Contact : metmap@orbifly.com




SOURCES & CREDITS :

   NOAA